Time;durP1;ratioP1;P1;durP2;ratioP2;P2;SDS_P1;SDS_P2;PMS_P1;PMS_P2;Temp;Humidity;BMP_temperature;BMP_pressure;BME280_temperature;BME280_humidity;BME280_pressure;Samples;Min_cycle;Max_cycle;Signal;HPM_P1;HPM_P2
2023/12/26 00:02:01;;;;;;;3.83;1.48;;;11.20;99.90;;;11.03;98.17;99565.78;5075840;28;20411;-83
2023/12/26 00:04:29;;;;;;;4.18;1.40;;;11.30;99.90;;;11.02;98.02;99566.81;5075965;28;20052;-83
2023/12/26 00:06:57;;;;;;;2.42;1.25;;;11.30;99.90;;;10.93;97.55;99573.56;5075706;28;20503;-83
2023/12/26 00:09:24;;;;;;;4.10;1.20;;;11.20;99.90;;;10.97;97.79;99559.50;5077498;28;20063;-83
2023/12/26 00:11:51;;;;;;;4.45;1.38;;;11.20;99.90;;;10.99;97.29;99580.66;5076002;28;20047;-83
2023/12/26 00:14:20;;;;;;;3.10;1.30;;;11.20;99.90;;;11.03;97.21;99568.47;5075739;28;20051;-83
2023/12/26 00:16:48;;;;;;;2.60;1.23;;;11.30;99.90;;;11.05;97.15;99558.34;5058620;28;20040;-83
2023/12/26 00:19:17;;;;;;;3.45;1.55;;;11.20;99.90;;;11.03;96.68;99561.25;5075319;28;20426;-83
2023/12/26 00:21:44;;;;;;;2.50;1.20;;;11.20;99.90;;;11.08;96.59;99556.03;5075893;28;20052;-83
2023/12/26 00:24:12;;;;;;;2.67;1.10;;;11.30;99.90;;;11.13;96.30;99565.19;5077127;28;20049;-83
2023/12/26 00:26:40;;;;;;;3.75;1.30;;;11.30;99.90;;;11.07;95.51;99548.22;5075345;28;20566;-85
2023/12/26 00:29:09;;;;;;;6.53;1.15;;;11.30;99.90;;;11.05;95.50;99558.34;5039170;28;20068;-83
2023/12/26 00:31:41;;;;;;;2.75;1.10;;;11.30;99.90;;;11.06;95.38;99557.28;5039106;28;20112;-83
2023/12/26 00:34:09;;;;;;;2.55;1.10;;;11.20;99.90;;;11.01;94.95;99547.31;5039126;28;20049;-83
2023/12/26 00:36:38;;;;;;;2.22;1.30;;;11.20;99.90;;;11.04;94.95;99548.72;5039305;28;20060;-84
2023/12/26 00:39:07;;;;;;;4.22;1.10;;;11.20;99.90;;;11.03;94.64;99549.78;5075143;28;20045;-83
2023/12/26 00:41:36;;;;;;;3.03;1.13;;;11.20;99.90;;;11.06;94.26;99551.97;5075316;28;20041;-83
2023/12/26 00:44:03;;;;;;;3.70;1.08;;;11.20;99.90;;;11.04;94.02;99552.19;5058562;28;20072;-84
2023/12/26 00:46:32;;;;;;;2.67;1.10;;;11.30;99.90;;;11.04;93.68;99538.06;5074736;28;20091;-83
2023/12/26 00:48:59;;;;;;;2.88;1.10;;;11.30;99.90;;;11.05;93.06;99547.69;5091752;28;20044;-83
2023/12/26 00:51:27;;;;;;;2.20;1.02;;;11.20;99.90;;;11.06;92.69;99544.75;5074861;28;20045;-83
2023/12/26 00:53:56;;;;;;;3.15;0.80;;;11.20;99.90;;;11.00;92.13;99539.56;5075239;28;20106;-83
2023/12/26 00:56:23;;;;;;;2.30;0.90;;;11.20;99.90;;;11.03;92.30;99547.13;5057867;28;20049;-85
2023/12/26 00:58:51;;;;;;;1.75;0.73;;;11.20;99.90;;;11.04;92.31;99554.88;5060033;28;20500;-83
2023/12/26 01:01:18;;;;;;;2.17;0.80;;;11.30;99.90;;;11.03;91.73;99557.78;5040978;28;20044;-83
2023/12/26 01:03:46;;;;;;;3.70;0.88;;;11.20;99.90;;;11.04;91.52;99570.06;5075008;28;20423;-84
2023/12/26 01:06:15;;;;;;;1.98;0.85;;;11.30;99.90;;;11.01;92.04;99568.69;5075058;28;20037;-83
2023/12/26 01:08:42;;;;;;;2.45;0.90;;;11.20;99.90;;;10.93;92.36;99562.88;5073243;28;20140;-83
2023/12/26 01:11:11;;;;;;;2.72;1.00;;;11.20;99.90;;;10.92;93.01;99558.59;5054797;28;20045;-83
2023/12/26 01:13:39;;;;;;;2.30;0.85;;;11.20;99.90;;;10.90;93.13;99558.84;5060865;28;20063;-83
2023/12/26 01:16:08;;;;;;;2.05;0.90;;;11.10;99.90;;;10.90;93.22;99553.50;5074424;28;20048;-83
2023/12/26 01:18:37;;;;;;;4.50;1.10;;;11.10;99.90;;;10.90;93.50;99547.38;5074609;28;20044;-83
2023/12/26 01:21:05;;;;;;;2.28;1.02;;;11.10;99.90;;;10.81;94.40;99558.41;5075096;28;20059;-83
2023/12/26 01:23:34;;;;;;;2.55;1.10;;;11.10;99.90;;;10.83;94.68;99548.31;5074500;28;20049;-83
2023/12/26 01:26:01;;;;;;;2.33;1.08;;;11.00;99.90;;;10.80;94.79;99554.13;5074573;28;20044;-83
2023/12/26 01:28:31;;;;;;;3.20;1.00;;;11.00;99.90;;;10.75;94.74;99556.69;5075143;28;20135;-85
2023/12/26 01:30:59;;;;;;;2.90;1.00;;;11.00;99.90;;;10.80;94.85;99551.44;5076256;28;20400;-83
2023/12/26 01:33:27;;;;;;;2.95;0.90;;;11.00;99.90;;;10.79;94.97;99565.03;5074810;28;20044;-83
2023/12/26 01:35:53;;;;;;;2.15;0.90;;;11.00;99.90;;;10.86;95.00;99564.88;5058439;28;20565;-83
2023/12/26 01:38:21;;;;;;;2.60;1.10;;;11.00;99.90;;;10.80;93.94;99558.66;5057675;28;20421;-83
2023/12/26 01:40:48;;;;;;;3.00;1.00;;;11.00;99.90;;;10.75;94.65;99572.69;5074635;28;20037;-83
2023/12/26 01:43:17;;;;;;;2.35;0.90;;;10.90;99.90;;;10.75;94.49;99582.53;5075419;28;20103;-83
2023/12/26 01:45:57;;;;;;;3.83;0.80;;;10.90;99.90;;;10.74;94.28;99579.06;5075755;28;20037;-83
2023/12/26 01:48:26;;;;;;;2.50;1.02;;;10.90;99.90;;;10.71;94.38;99574.19;5060043;28;20048;-84
2023/12/26 01:50:54;;;;;;;2.55;0.90;;;10.90;99.90;;;10.75;94.57;99572.69;5108081;28;20045;-84
2023/12/26 01:53:22;;;;;;;2.95;1.13;;;10.90;99.90;;;10.69;94.21;99594.16;5086307;28;20495;-83
2023/12/26 01:55:51;;;;;;;3.70;1.10;;;10.80;99.90;;;10.70;94.36;99585.09;5054751;28;20056;-83
2023/12/26 01:58:18;;;;;;;2.72;1.05;;;10.90;99.90;;;10.74;94.47;99600.41;5071551;28;20045;-83
2023/12/26 02:00:50;;;;;;;1.77;0.85;;;10.90;99.90;;;10.71;94.52;99600.84;5108696;28;20519;-83
2023/12/26 02:03:17;;;;;;;;;;;10.90;99.90;;;10.71;94.32;99587.53;5076617;28;20044;-83
2023/12/26 02:05:47;;;;;;;4.93;0.90;;;10.90;99.90;;;10.77;94.14;99596.44;5074423;28;19970;-83
2023/12/26 02:08:16;;;;;;;2.78;1.00;;;10.90;99.90;;;10.74;93.77;99603.06;5075148;28;20045;-83
2023/12/26 02:10:44;;;;;;;3.33;0.88;;;10.90;99.90;;;10.65;94.03;99588.47;5074648;28;20070;-83
2023/12/26 02:13:12;;;;;;;2.95;0.90;;;10.90;99.90;;;10.71;94.20;99613.38;5074734;28;20048;-83
2023/12/26 02:15:39;;;;;;;2.70;0.93;;;10.90;99.90;;;10.68;94.53;99601.31;5057822;28;20040;-83
2023/12/26 02:18:09;;;;;;;2.20;1.00;;;10.80;99.90;;;10.62;94.34;99610.25;5075045;28;20052;-83
2023/12/26 02:20:36;;;;;;;2.22;1.00;;;10.80;99.90;;;10.57;94.48;99607.47;5075589;28;20044;-84
2023/12/26 02:23:04;;;;;;;3.67;1.10;;;10.80;99.90;;;10.57;94.69;99604.81;5075726;28;20542;-83
2023/12/26 02:25:33;;;;;;;2.78;1.20;;;10.80;99.90;;;10.52;94.37;99610.03;5074437;28;20044;-83
2023/12/26 02:28:04;;;;;;;3.15;0.95;;;10.70;99.90;;;10.53;94.85;99585.78;5058542;28;20090;-83
2023/12/26 02:30:33;;;;;;;6.70;1.48;;;10.70;99.90;;;10.58;95.29;99601.09;5074078;28;20052;-83
2023/12/26 02:33:05;;;;;;;1.85;0.90;;;10.80;99.90;;;10.57;94.95;99613.59;5076101;28;20039;-84
2023/12/26 02:35:34;;;;;;;3.05;0.77;;;10.80;99.90;;;10.57;95.05;99602.94;5108952;28;20051;-83
2023/12/26 02:38:03;;;;;;;2.35;0.90;;;10.80;99.90;;;10.63;94.80;99611.06;5074160;28;20435;-83
2023/12/26 02:40:31;;;;;;;2.83;0.95;;;10.80;99.90;;;10.54;94.29;99613.25;5055426;28;20056;-83
2023/12/26 02:42:59;;;;;;;2.10;0.90;;;10.70;99.90;;;10.49;94.42;99613.13;5063882;28;20043;-83
2023/12/26 02:45:27;;;;;;;3.45;1.05;;;10.70;99.90;;;10.47;94.89;99623.22;5077851;28;20040;-83
2023/12/26 02:47:54;;;;;;;2.75;1.02;;;10.70;99.90;;;10.53;94.96;99616.97;5076868;28;20048;-83
2023/12/26 02:50:22;;;;;;;1.92;0.90;;;10.70;99.90;;;10.53;94.66;99624.97;5076204;28;20047;-83
2023/12/26 02:52:50;;;;;;;2.33;0.90;;;10.70;99.90;;;10.60;94.93;99625.69;5076101;28;20032;-83
2023/12/26 02:55:18;;;;;;;1.55;0.80;;;10.70;99.90;;;10.64;94.88;99626.84;5075863;28;20067;-83
2023/12/26 02:57:46;;;;;;;1.75;0.90;;;10.80;99.90;;;10.55;93.92;99625.56;5077673;28;20468;-83
2023/12/26 03:00:16;;;;;;;2.30;1.00;;;10.70;99.90;;;10.56;94.42;99625.31;5079123;28;20110;-83
2023/12/26 03:02:43;;;;;;;2.42;0.93;;;10.70;99.90;;;10.54;94.25;99629.25;5063254;28;20048;-83
2023/12/26 03:05:11;;;;;;;2.67;0.90;;;10.70;99.90;;;10.48;94.47;99612.34;5079398;28;20053;-83
2023/12/26 03:07:39;;;;;;;2.22;0.90;;;10.60;99.90;;;10.54;94.71;99629.25;5080221;28;20409;-83
2023/12/26 03:10:09;;;;;;;3.97;0.95;;;10.70;99.90;;;10.49;94.37;99623.81;5063406;28;20064;-83
2023/12/26 03:12:36;;;;;;;1.80;0.88;;;10.70;99.90;;;10.47;94.09;99629.38;5081021;28;20135;-83
2023/12/26 03:15:05;;;;;;;2.53;0.90;;;10.70;99.90;;;10.36;94.27;99616.84;5080902;28;20044;-83
2023/12/26 03:17:36;;;;;;;2.45;0.95;;;10.60;99.90;;;10.45;94.77;99625.34;5078735;28;20048;-83
2023/12/26 03:20:04;;;;;;;1.60;0.82;;;10.70;99.90;;;10.42;94.82;99615.94;5079548;28;20048;-83
2023/12/26 03:22:33;;;;;;;4.63;1.10;;;10.60;99.90;;;10.40;94.52;99628.69;5096583;28;20052;-83
2023/12/26 03:25:02;;;;;;;3.45;1.00;;;10.60;99.90;;;10.41;94.93;99634.81;5079318;28;20125;-83
2023/12/26 03:27:31;;;;;;;2.63;0.90;;;10.60;99.90;;;10.39;94.90;99628.91;5063157;28;20139;-83
2023/12/26 03:29:59;;;;;;;3.22;1.00;;;10.60;99.90;;;10.43;95.11;99630.88;5078970;28;20046;-83
2023/12/26 03:32:26;;;;;;;3.05;1.00;;;10.60;99.90;;;10.46;95.11;99634.94;5078771;28;20036;-83
2023/12/26 03:34:55;;;;;;;4.72;1.00;;;10.70;99.90;;;10.46;94.91;99637.63;5078928;28;20059;-83
2023/12/26 03:37:23;;;;;;;3.03;1.02;;;10.60;99.90;;;10.48;95.14;99638.19;5078802;28;20045;-83
2023/12/26 03:39:50;;;;;;;3.40;1.10;;;10.60;99.90;;;10.40;95.03;99631.34;5079169;28;20053;-83
2023/12/26 03:42:18;;;;;;;2.35;0.80;;;10.60;99.90;;;10.43;95.16;99640.72;5112166;28;20047;-83
2023/12/26 03:44:47;;;;;;;2.15;0.98;;;10.60;99.90;;;10.43;95.00;99649.53;5078323;28;20067;-84
2023/12/26 03:47:15;;;;;;;1.88;0.90;;;10.60;99.90;;;10.47;95.30;99642.72;5045667;28;20075;-83
2023/12/26 03:49:43;;;;;;;2.80;0.90;;;10.60;99.90;;;10.40;95.10;99642.00;5078591;28;20393;-83
2023/12/26 03:52:12;;;;;;;3.97;1.00;;;10.60;99.90;;;10.51;95.39;99654.53;5095612;28;20415;-84
2023/12/26 03:54:41;;;;;;;1.50;0.77;;;10.60;99.90;;;10.50;94.83;99657.44;5079935;28;20123;-85
2023/12/26 03:57:08;;;;;;;2.22;0.98;;;10.70;99.90;;;10.46;95.40;99656.28;5079634;28;20048;-84
2023/12/26 03:59:36;;;;;;;1.98;1.02;;;10.60;99.90;;;10.50;95.41;99658.25;5078607;28;20518;-84
2023/12/26 04:02:04;;;;;;;2.47;0.88;;;10.60;99.90;;;10.56;95.36;99665.31;5078931;28;20499;-83
2023/12/26 04:04:32;;;;;;;2.67;0.75;;;10.60;99.90;;;10.53;94.85;99665.75;5078516;28;20064;-83
2023/12/26 04:07:02;;;;;;;3.25;0.80;;;10.70;99.90;;;10.51;94.83;99667.06;5078252;28;20055;-84
2023/12/26 04:09:31;;;;;;;2.58;0.80;;;10.60;99.90;;;10.50;94.85;99676.09;5078370;28;20048;-83
2023/12/26 04:11:59;;;;;;;2.20;0.80;;;10.70;99.90;;;10.47;95.13;99671.22;5043821;28;20511;-83
2023/12/26 04:14:27;;;;;;;2.10;0.90;;;10.60;99.90;;;10.50;95.56;99676.91;5079674;28;20407;-83
2023/12/26 04:16:55;;;;;;;2.40;1.00;;;10.70;99.90;;;10.42;95.38;99673.75;5078907;28;20048;-83
2023/12/26 04:19:24;;;;;;;2.08;1.10;;;10.60;99.90;;;10.50;95.55;99662.78;5077727;28;20047;-83
2023/12/26 04:21:52;;;;;;;2.00;0.90;;;10.60;99.90;;;10.47;95.31;99658.69;5078148;28;20131;-83
2023/12/26 04:24:19;;;;;;;2.13;0.85;;;10.70;99.90;;;10.41;95.25;99669.47;5077570;28;20041;-85
2023/12/26 04:26:48;;;;;;;3.28;1.00;;;10.60;99.90;;;10.41;95.45;99666.81;5077682;28;20106;-83
2023/12/26 04:29:16;;;;;;;1.88;0.85;;;10.60;99.90;;;10.45;95.81;99667.97;5074296;28;20094;-83
2023/12/26 04:31:44;;;;;;;3.10;1.30;;;10.60;99.90;;;10.37;95.88;99681.63;5058122;28;20045;-83
2023/12/26 04:34:11;;;;;;;4.15;1.30;;;10.60;99.90;;;10.42;95.97;99690.56;5074433;28;20048;-83
2023/12/26 04:36:38;;;;;;;3.28;1.13;;;10.60;99.90;;;10.44;96.06;99698.31;5057952;28;20052;-84
2023/12/26 04:39:06;;;;;;;3.58;1.20;;;10.60;99.90;;;10.45;96.12;99695.44;5070478;28;20067;-83
2023/12/26 04:41:34;;;;;;;4.30;1.27;;;10.60;99.90;;;10.49;95.68;99706.44;5077228;28;20043;-83
2023/12/26 04:44:04;;;;;;;3.40;1.63;;;10.60;99.90;;;10.42;96.00;99701.22;5078897;28;20041;-83
2023/12/26 04:46:31;;;;;;;3.78;1.70;;;10.60;99.90;;;10.47;96.14;99708.53;5077091;28;20075;-83
2023/12/26 04:48:59;;;;;;;4.45;1.73;;;10.70;99.90;;;10.41;95.76;99712.94;5078712;28;20048;-83
2023/12/26 04:51:29;;;;;;;5.32;1.70;;;10.60;99.90;;;10.38;95.97;99717.91;5077664;28;20075;-83
2023/12/26 04:53:58;;;;;;;4.30;1.60;;;10.60;99.90;;;10.39;96.12;99727.53;5060761;28;20041;-83
2023/12/26 04:56:27;;;;;;;4.32;1.60;;;10.60;99.90;;;10.45;96.39;99723.97;5077028;28;20045;-83
2023/12/26 04:58:54;;;;;;;3.75;1.70;;;10.60;99.90;;;10.44;95.49;99725.81;5078723;28;20036;-83
2023/12/26 05:01:24;;;;;;;4.45;1.65;;;10.60;99.90;;;10.45;95.04;99722.09;5077152;28;20139;-83
2023/12/26 05:03:51;;;;;;;2.90;1.40;;;10.60;99.90;;;10.50;94.64;99734.75;5077241;28;20052;-83
2023/12/26 05:06:21;;;;;;;5.32;1.60;;;10.60;99.90;;;10.52;94.60;99725.47;5060450;28;20079;-83
2023/12/26 05:08:48;;;;;;;4.10;1.33;;;10.70;99.90;;;10.50;94.34;99734.75;5060339;28;20044;-83
2023/12/26 05:11:23;;;;;;;2.53;1.00;;;10.60;99.90;;;10.49;94.10;99749.94;5044012;28;20068;-83
2023/12/26 05:13:51;;;;;;;3.10;1.20;;;10.60;99.90;;;10.58;94.08;99751.22;5027045;28;20094;-83
2023/12/26 05:16:21;;;;;;;3.90;1.00;;;10.70;99.90;;;10.61;93.53;99747.28;5059647;28;20040;-83
2023/12/26 05:18:51;;;;;;;3.83;1.13;;;10.70;99.90;;;10.57;92.96;99741.59;5077097;28;20139;-83
2023/12/26 05:21:21;;;;;;;2.38;0.95;;;10.60;99.90;;;10.63;93.01;99761.19;5076335;28;20082;-83
2023/12/26 05:23:49;;;;;;;3.40;0.93;;;10.70;99.90;;;10.62;92.48;99764.91;5075916;28;20649;-83
2023/12/26 05:26:17;;;;;;;3.95;1.13;;;10.70;99.90;;;10.56;92.10;99755.16;5109605;28;20048;-83
2023/12/26 05:28:47;;;;;;;4.43;1.00;;;10.60;99.90;;;10.58;91.85;99763.72;5076705;28;20044;-84
2023/12/26 05:31:14;;;;;;;5.60;1.20;;;10.60;99.90;;;10.54;90.81;99773.22;5076945;28;20135;-84
2023/12/26 05:33:42;;;;;;;3.78;1.05;;;10.60;99.90;;;10.50;90.86;99770.22;5076806;28;20044;-83
2023/12/26 05:36:11;;;;;;;4.32;1.35;;;10.60;99.90;;;10.49;91.15;99773.09;5076971;28;20576;-84
2023/12/26 05:38:39;;;;;;;4.30;1.20;;;10.50;99.90;;;10.52;91.12;99793.97;5076389;28;20101;-83
2023/12/26 05:41:08;;;;;;;4.57;1.25;;;10.60;99.90;;;10.54;90.97;99798.06;5077208;28;20059;-84
2023/12/26 05:43:36;;;;;;;3.97;1.40;;;10.60;99.90;;;10.50;91.11;99794.22;5060392;28;20109;-84
2023/12/26 05:46:04;;;;;;;6.85;2.38;;;10.60;99.90;;;10.56;91.05;99792.50;5060118;28;20098;-83
2023/12/26 05:48:33;;;;;;;4.22;1.63;;;10.60;99.90;;;10.44;90.20;99802.28;5076723;28;20044;-83
2023/12/26 05:51:00;;;;;;;5.57;1.80;;;10.50;99.90;;;10.44;89.98;99804.94;5076701;28;20142;-84
2023/12/26 05:53:30;;;;;;;5.65;2.10;;;10.50;99.90;;;10.36;90.14;99823.94;5060567;28;20131;-84
2023/12/26 05:55:58;;;;;;;5.85;2.10;;;10.40;99.90;;;10.39;90.90;99823.47;5076334;28;20037;-83
2023/12/26 05:58:27;;;;;;;8.60;2.42;;;10.40;99.90;;;10.39;90.29;99832.28;5058871;28;20054;-83
2023/12/26 06:00:54;;;;;;;8.68;2.72;;;10.40;99.90;;;10.42;90.21;99825.72;5060945;28;20123;-84
2023/12/26 06:03:22;;;;;;;4.25;2.17;;;10.40;99.90;;;10.47;90.35;99836.50;5077279;28;20083;-85
2023/12/26 06:05:50;;;;;;;5.88;2.38;;;10.50;99.90;;;10.45;89.88;99833.25;5075690;28;20049;-84
2023/12/26 06:08:18;;;;;;;7.53;2.60;;;10.50;99.90;;;10.41;90.19;99832.88;5079783;28;20041;-84
2023/12/26 06:10:47;;;;;;;11.20;2.92;;;10.40;99.90;;;10.44;90.28;99836.94;5075776;28;20049;-84
2023/12/26 06:13:15;;;;;;;6.30;2.22;;;10.50;99.90;;;10.45;89.93;99836.75;5075430;28;20484;-83
2023/12/26 06:15:43;;;;;;;8.55;2.33;;;10.50;99.90;;;10.39;90.06;99842.94;5058932;28;20453;-83
2023/12/26 06:18:11;;;;;;;7.13;2.17;;;10.50;99.90;;;10.40;89.56;99857.13;5075642;28;20050;-84
2023/12/26 06:20:38;;;;;;;5.38;2.22;;;10.40;99.90;;;10.35;89.94;99865.78;5074965;28;20048;-84
2023/12/26 06:23:07;;;;;;;6.38;2.22;;;10.40;99.90;;;10.41;90.43;99858.75;5092662;28;20127;-83
2023/12/26 06:25:34;;;;;;;6.80;2.08;;;10.50;99.90;;;10.40;89.84;99867.78;5058445;28;20037;-83
2023/12/26 06:28:05;;;;;;;7.00;2.10;;;10.50;99.90;;;10.36;90.20;99890.59;5075499;28;20057;-83
2023/12/26 06:30:32;;;;;;;6.88;2.20;;;10.40;99.90;;;10.37;90.30;99901.00;5092776;28;20426;-83
2023/12/26 06:33:00;;;;;;;7.00;2.17;;;10.40;99.90;;;10.34;90.05;99906.78;5074996;28;20561;-84
2023/12/26 06:35:28;;;;;;;8.20;2.50;;;10.40;99.90;;;10.28;90.00;99892.50;5073099;28;20149;-83
2023/12/26 06:37:55;;;;;;;5.97;2.00;;;10.40;99.90;;;10.30;89.69;99895.78;5078821;28;20495;-83
2023/12/26 06:40:23;;;;;;;8.60;2.17;;;10.40;99.90;;;10.32;90.32;99915.00;5078880;28;20053;-83
2023/12/26 06:42:50;;;;;;;6.68;1.95;;;10.40;99.90;;;10.32;89.93;99904.34;5078622;28;20515;-83
2023/12/26 06:45:19;;;;;;;7.47;1.90;;;10.40;99.90;;;10.31;89.13;99917.91;5077799;28;20090;-85
2023/12/26 06:47:47;;;;;;;8.55;1.98;;;10.40;99.90;;;10.22;88.86;99935.19;5078649;28;20048;-83
2023/12/26 06:50:17;;;;;;;6.47;1.80;;;10.30;99.90;;;10.20;88.81;99940.75;5062066;28;20047;-83
2023/12/26 06:52:44;;;;;;;5.70;2.05;;;10.30;99.90;;;10.23;89.22;99942.16;5061839;28;20059;-83
2023/12/26 06:55:12;;;;;;;6.55;1.85;;;10.30;99.90;;;10.07;88.93;99946.22;5061339;28;20059;-84
2023/12/26 06:57:40;;;;;;;5.57;1.92;;;10.30;99.90;;;10.19;89.39;99946.28;5046010;28;20422;-83
2023/12/26 07:00:09;;;;;;;12.82;2.03;;;10.30;99.90;;;10.26;89.35;99937.22;5062270;28;20139;-83
2023/12/26 07:02:38;;;;;;;7.88;2.35;;;10.30;99.90;;;10.35;89.63;99947.59;5078927;28;20511;-83
2023/12/26 07:05:07;;;;;;;7.35;2.05;;;10.40;99.90;;;10.36;89.00;99962.56;5078547;28;20051;-84
2023/12/26 07:07:35;;;;;;;5.80;2.17;;;10.40;99.90;;;10.39;88.95;99970.91;5078485;28;20048;-83
2023/12/26 07:10:02;;;;;;;8.10;1.88;;;10.40;99.90;;;10.46;89.17;99970.84;5080535;28;20045;-83
2023/12/26 07:12:30;;;;;;;6.85;1.80;;;10.40;99.90;;;10.51;88.94;99976.31;5044814;28;20110;-83
2023/12/26 07:14:57;;;;;;;7.10;2.08;;;10.40;99.90;;;10.55;88.78;99982.84;5078738;28;20051;-84
2023/12/26 07:17:26;;;;;;;6.47;2.58;;;10.50;99.90;;;10.51;87.91;99977.13;5078591;28;20044;-83
2023/12/26 07:19:55;;;;;;;7.15;2.35;;;10.50;99.90;;;10.54;88.33;99975.84;5080080;28;20048;-83
2023/12/26 07:22:23;;;;;;;6.57;2.53;;;10.50;99.90;;;10.52;88.02;99985.94;5111125;28;20036;-83
2023/12/26 07:24:50;;;;;;;6.70;2.65;;;10.50;99.90;;;10.55;88.33;99982.84;5078764;28;20037;-83
2023/12/26 07:27:18;;;;;;;9.23;2.70;;;10.50;99.90;;;10.52;87.63;99988.59;5079957;28;20067;-83
2023/12/26 07:29:45;;;;;;;10.10;2.60;;;10.50;99.90;;;10.48;87.71;100003.41;5079421;28;20105;-83
2023/12/26 07:32:13;;;;;;;9.48;2.53;;;10.40;99.90;;;10.46;87.25;100000.97;5080140;28;20045;-83
2023/12/26 07:34:41;;;;;;;9.50;2.40;;;10.40;99.90;;;10.39;86.89;100012.75;5044478;28;20056;-85
2023/12/26 07:37:10;;;;;;;8.82;2.60;;;10.40;99.90;;;10.43;87.50;100027.25;5077979;28;20128;-83
2023/12/26 07:39:38;;;;;;;8.93;2.35;;;10.40;99.90;;;10.32;86.05;100036.81;5078036;28;20052;-83
2023/12/26 07:42:07;;;;;;;7.05;1.92;;;10.40;99.90;;;10.32;86.05;100034.16;5079757;28;20040;-84
2023/12/26 07:44:39;;;;;;;9.82;2.10;;;10.30;99.90;;;10.26;85.82;100027.84;5093932;28;20048;-83
2023/12/26 07:47:07;;;;;;;7.05;2.10;;;10.20;99.90;;;10.25;85.45;100039.53;5076674;28;20049;-83
2023/12/26 07:49:34;;;;;;;9.98;1.88;;;10.20;99.90;;;10.13;84.83;100054.56;5077415;28;20051;-83
2023/12/26 07:52:02;;;;;;;9.68;1.88;;;10.20;99.90;;;10.10;84.72;100060.31;5079138;28;20419;-84
2023/12/26 07:54:32;;;;;;;7.75;1.73;;;10.10;99.90;;;10.11;84.42;100077.97;5076984;28;20044;-83
2023/12/26 07:56:59;;;;;;;7.82;1.80;;;10.10;99.90;;;10.14;84.39;100079.38;5059472;28;20048;-83
2023/12/26 07:59:26;;;;;;;11.85;1.83;;;10.10;99.90;;;10.07;84.05;100092.75;5075830;28;20040;-84
2023/12/26 08:01:54;;;;;;;6.32;1.48;;;10.10;99.90;;;10.08;84.32;100099.72;5077184;28;20075;-83
2023/12/26 08:04:21;;;;;;;8.43;1.70;;;10.10;99.90;;;10.12;84.29;100100.09;5075149;28;20131;-83
2023/12/26 08:06:49;;;;;;;9.30;1.75;;;10.10;99.90;;;10.07;83.30;100098.09;5075190;28;20064;-83
2023/12/26 08:09:17;;;;;;;12.85;1.75;;;10.10;99.90;;;10.09;83.43;100101.34;5058998;28;20052;-84
2023/12/26 08:11:48;;;;;;;8.35;1.90;;;10.10;99.90;;;10.06;83.17;100104.44;5075203;28;20045;-83
2023/12/26 08:14:17;;;;;;;10.70;2.00;;;10.00;99.90;;;10.11;83.03;100104.63;5075554;28;20407;-84
2023/12/26 08:16:45;;;;;;;12.20;2.35;;;10.10;99.90;;;10.20;83.84;100102.47;5077148;28;20066;-83
2023/12/26 08:19:13;;;;;;;12.52;1.90;;;10.10;99.90;;;10.11;82.79;100104.63;5076846;28;20071;-84
2023/12/26 08:21:40;;;;;;;8.80;1.75;;;10.10;99.90;;;10.00;82.00;100105.28;5078784;28;20480;-84
2023/12/26 08:24:09;;;;;;;11.00;1.92;;;10.00;99.90;;;10.05;82.64;100111.63;5076901;28;20044;-84
2023/12/26 08:26:37;;;;;;;12.10;2.05;;;10.00;99.90;;;10.11;82.74;100109.13;5075900;28;20056;-84
2023/12/26 08:29:06;;;;;;;11.52;2.00;;;10.00;99.90;;;9.98;81.22;100131.34;5077484;28;20040;-84
2023/12/26 08:31:36;;;;;;;9.15;1.60;;;10.00;99.90;;;10.07;82.02;100132.72;5077374;28;20114;-83
2023/12/26 08:34:02;;;;;;;9.50;1.60;;;10.00;99.90;;;10.13;82.03;100144.34;5077228;28;20047;-83
2023/12/26 08:36:30;;;;;;;7.57;1.60;;;10.00;99.90;;;10.09;80.87;100140.50;5110262;28;20051;-84
2023/12/26 08:38:58;;;;;;;12.98;2.08;;;10.00;99.90;;;10.08;80.32;100147.66;5076028;28;20033;-84
2023/12/26 08:41:25;;;;;;;8.48;1.67;;;10.00;99.90;;;10.09;80.06;100156.47;5076558;28;20040;-83
2023/12/26 08:43:53;;;;;;;6.88;1.48;;;10.00;99.90;;;10.01;79.54;100166.38;5080945;28;20048;-84
2023/12/26 08:46:23;;;;;;;10.48;1.85;;;9.90;99.90;;;10.00;79.37;100162.09;5073033;28;20040;-84
2023/12/26 08:48:51;;;;;;;10.75;2.05;;;9.90;99.90;;;10.00;79.09;100155.91;5075643;28;20049;-84
2023/12/26 08:51:19;;;;;;;10.18;1.60;;;9.90;99.90;;;10.01;78.92;100162.91;5060027;28;20067;-84
2023/12/26 08:53:48;;;;;;;12.40;2.30;;;9.90;99.90;;;10.04;79.44;100154.47;5042209;28;20040;-84
2023/12/26 08:56:15;;;;;;;10.13;1.80;;;9.90;99.90;;;10.00;78.75;100161.25;5076998;28;20056;-84
2023/12/26 08:58:43;;;;;;;13.65;1.50;;;9.90;99.90;;;9.99;78.63;100173.75;5060246;28;20392;-84
2023/12/26 09:01:10;;;;;;;8.45;1.90;;;9.90;99.90;;;9.99;79.30;100179.06;5039381;28;20045;-84
2023/12/26 09:03:41;;;;;;;10.15;1.88;;;9.90;99.90;;;10.01;79.72;100174.38;5072709;28;20431;-84
2023/12/26 09:06:11;;;;;;;12.30;2.47;;;9.90;99.90;;;10.04;80.19;100181.91;5071686;28;20071;-83
2023/12/26 09:08:40;;;;;;;10.43;2.13;;;9.90;99.90;;;10.05;79.98;100188.06;5076687;28;20057;-84
2023/12/26 09:11:07;;;;;;;7.90;1.83;;;9.90;99.90;;;10.00;79.07;100193.22;5076172;28;20045;-84
2023/12/26 09:13:35;;;;;;;12.95;3.70;;;9.90;99.90;;;9.89;78.98;100197.38;5076260;28;20048;-84
2023/12/26 09:16:03;;;;;;;9.30;2.80;;;9.80;99.90;;;9.90;79.35;100201.66;5075867;28;20052;-84
2023/12/26 09:18:31;;;;;;;12.68;1.92;;;9.90;99.90;;;9.94;79.28;100202.06;5075373;28;20527;-84
2023/12/26 09:21:00;;;;;;;13.43;2.28;;;9.90;99.90;;;9.89;78.62;100209.88;5075797;28;20048;-85
2023/12/26 09:23:28;;;;;;;10.77;1.98;;;9.90;99.90;;;9.79;78.10;100207.69;5074358;28;20041;-85
2023/12/26 09:25:56;;;;;;;12.95;2.75;;;9.80;99.90;;;9.76;78.63;100211.59;5074617;28;20507;-84
2023/12/26 09:28:24;;;;;;;13.27;3.25;;;9.80;99.90;;;9.80;78.62;100215.44;5024980;28;20057;-84
2023/12/26 09:30:51;;;;;;;11.70;2.60;;;9.80;99.90;;;9.89;79.30;100217.88;5075870;28;20055;-85
2023/12/26 09:33:19;;;;;;;11.98;2.38;;;9.90;99.90;;;9.90;78.59;100219.50;5078859;28;20051;-85
2023/12/26 09:35:47;;;;;;;11.27;2.20;;;9.90;99.90;;;9.79;77.82;100232.47;5076363;28;20450;-85
2023/12/26 09:38:16;;;;;;;12.20;2.15;;;9.80;99.90;;;9.79;77.91;100243.09;5093068;28;20047;-85
2023/12/26 09:40:44;;;;;;;14.52;2.33;;;9.80;99.90;;;9.84;78.53;100247.81;5076250;28;20056;-83
2023/12/26 09:43:14;;;;;;;14.10;3.08;;;9.80;99.90;;;9.87;78.03;100249.25;5077127;28;20049;-85
2023/12/26 09:45:42;;;;;;;12.10;2.85;;;9.90;99.90;;;9.96;79.14;100269.28;5078444;28;20055;-85
2023/12/26 09:48:10;;;;;;;10.98;2.65;;;9.90;99.90;;;9.98;78.49;100262.69;5076123;28;20052;-84
2023/12/26 09:50:39;;;;;;;13.38;2.80;;;10.00;99.90;;;9.95;77.77;100272.97;5075893;28;20040;-84
2023/12/26 09:53:10;;;;;;;8.30;2.15;;;10.00;99.90;;;9.95;77.79;100272.97;5075377;28;20049;-84
2023/12/26 09:55:39;;;;;;;9.27;2.40;;;10.00;99.90;;;9.94;77.57;100288.13;5073893;28;20119;-84
2023/12/26 09:58:07;;;;;;;12.68;2.42;;;10.00;99.90;;;9.95;78.20;100281.75;5075175;28;20047;-84
2023/12/26 10:00:37;;;;;;;11.60;2.30;;;10.10;99.90;;;10.01;78.04;100280.94;5074848;28;20114;-84
2023/12/26 10:03:07;;;;;;;10.52;2.53;;;10.10;99.90;;;10.07;78.66;100296.06;5073090;28;20044;-84
2023/12/26 10:05:34;;;;;;;13.05;2.22;;;10.10;99.90;;;10.08;78.56;100296.88;5073279;28;20037;-84
2023/12/26 10:08:02;;;;;;;15.38;2.45;;;10.20;99.90;;;10.04;77.67;100296.47;5074185;28;20060;-84
2023/12/26 10:10:30;;;;;;;12.60;2.10;;;10.10;99.90;;;9.96;77.26;100296.75;5077120;28;20063;-84
2023/12/26 10:13:00;;;;;;;10.80;2.10;;;10.10;99.90;;;9.95;76.26;100311.06;5077950;28;20105;-84
2023/12/26 10:15:29;;;;;;;14.68;2.72;;;10.10;99.90;;;9.80;76.25;100305.19;5078394;28;20059;-84
2023/12/26 10:17:57;;;;;;;13.95;2.78;;;9.80;99.90;;;9.85;77.49;100312.53;5077741;28;20045;-84
2023/12/26 10:20:34;;;;;;;13.98;2.40;;;9.90;99.90;;;9.86;77.73;100316.84;5079204;28;20092;-84
2023/12/26 10:23:04;;;;;;;12.25;3.33;;;9.90;99.90;;;9.81;77.54;100317.50;5078089;28;20044;-84